createdAt,value
2022-11-04T00:01:59.431Z,78.30
2022-11-04T00:04:29.660Z,78.50
2022-11-04T00:06:58.849Z,78.40
2022-11-04T00:09:29.313Z,78.30
2022-11-04T00:12:16.068Z,78.20
2022-11-04T00:14:44.599Z,78.10
2022-11-04T00:17:20.097Z,77.80
2022-11-04T00:20:06.860Z,77.80
2022-11-04T00:22:52.477Z,77.70
2022-11-04T00:25:38.328Z,77.50
2022-11-04T00:28:27.655Z,77.40
2022-11-04T00:30:57.383Z,77.40
2022-11-04T00:33:26.011Z,77.30
2022-11-04T00:35:56.410Z,77.40
2022-11-04T00:38:25.830Z,77.30
2022-11-04T00:40:54.587Z,77.30
2022-11-04T00:43:22.906Z,77.20
2022-11-04T00:45:51.146Z,77.10
2022-11-04T00:48:19.360Z,77.10
2022-11-04T00:50:48.979Z,76.90
2022-11-04T00:53:17.194Z,77.00
2022-11-04T00:55:45.458Z,76.90
2022-11-04T00:58:13.647Z,76.80
2022-11-04T01:00:41.891Z,76.80
2022-11-04T01:03:10.919Z,76.70
2022-11-04T01:05:39.456Z,76.70
2022-11-04T01:08:09.108Z,76.60
2022-11-04T01:10:44.583Z,76.60
2022-11-04T01:13:12.879Z,76.60
2022-11-04T01:15:41.720Z,76.50
2022-11-04T01:18:10.305Z,76.50
2022-11-04T01:20:38.889Z,76.60
2022-11-04T01:23:08.588Z,76.50
2022-11-04T01:25:41.046Z,76.50
2022-11-04T01:28:09.729Z,76.50
2022-11-04T01:30:40.566Z,76.30
2022-11-04T01:33:09.122Z,76.30
2022-11-04T01:35:37.385Z,76.20
2022-11-04T01:38:06.019Z,76.30
2022-11-04T01:40:39.681Z,76.30
2022-11-04T01:43:13.294Z,76.50
2022-11-04T01:45:42.467Z,76.30
2022-11-04T01:48:16.696Z,76.10
2022-11-04T01:50:44.999Z,76.40
2022-11-04T01:53:19.882Z,76.20
2022-11-04T01:55:53.798Z,76.30
2022-11-04T01:58:26.871Z,76.20
2022-11-04T02:00:55.217Z,76.00
2022-11-04T02:03:27.937Z,75.80
2022-11-04T02:05:56.363Z,76.40
2022-11-04T02:08:25.117Z,75.60
2022-11-04T02:10:59.988Z,75.60
2022-11-04T02:13:28.710Z,75.60
2022-11-04T02:16:09.137Z,75.50
2022-11-04T02:18:55.582Z,75.60
2022-11-04T02:21:45.402Z,75.70
2022-11-04T02:24:32.668Z,75.60
2022-11-04T02:27:33.884Z,75.60
2022-11-04T02:30:16.155Z,75.60
2022-11-04T02:33:11.065Z,75.80
2022-11-04T02:35:51.446Z,75.70
2022-11-04T02:38:30.904Z,75.50
2022-11-04T02:41:05.784Z,75.40
2022-11-04T02:43:42.456Z,75.40
2022-11-04T02:46:19.840Z,75.30
2022-11-04T02:48:53.539Z,75.20
2022-11-04T02:51:27.095Z,75.20
2022-11-04T02:54:04.956Z,75.00
2022-11-04T02:56:36.642Z,75.20
2022-11-04T02:59:08.668Z,74.90
2022-11-04T03:01:42.638Z,74.90
2022-11-04T03:04:15.492Z,74.90
2022-11-04T03:06:46.202Z,74.80
2022-11-04T03:09:16.846Z,74.60
2022-11-04T03:11:48.680Z,74.60
2022-11-04T03:14:20.134Z,74.50
2022-11-04T03:16:53.249Z,74.60
2022-11-04T03:19:28.490Z,74.70
2022-11-04T03:22:01.754Z,74.80
2022-11-04T03:24:30.110Z,74.90
2022-11-04T03:27:02.162Z,74.90
2022-11-04T03:29:34.414Z,74.80
2022-11-04T03:32:10.169Z,75.00
2022-11-04T03:34:39.170Z,75.30
2022-11-04T03:37:07.559Z,75.20
2022-11-04T03:39:35.982Z,75.30
2022-11-04T03:42:20.367Z,75.40
2022-11-04T03:44:51.159Z,75.60
2022-11-04T03:47:23.141Z,75.40
2022-11-04T03:49:52.531Z,75.50
2022-11-04T03:52:21.249Z,75.40
2022-11-04T03:54:49.695Z,75.40
2022-11-04T03:57:36.021Z,75.40
2022-11-04T04:00:12.177Z,75.80
2022-11-04T04:03:09.154Z,75.60
2022-11-04T04:05:42.408Z,76.00
2022-11-04T04:08:19.343Z,75.70
2022-11-04T04:10:57.811Z,75.80
2022-11-04T04:13:37.179Z,75.80
2022-11-04T04:16:10.214Z,76.00
2022-11-04T04:18:43.675Z,76.00
2022-11-04T04:21:17.475Z,76.00
2022-11-04T04:24:05.945Z,76.00
2022-11-04T04:26:54.293Z,76.00
2022-11-04T04:29:23.665Z,76.00
2022-11-04T04:31:57.625Z,75.90
2022-11-04T04:34:29.539Z,75.80
2022-11-04T04:37:03.870Z,75.80
2022-11-04T04:39:55.197Z,75.70
2022-11-04T04:42:40.909Z,75.70
2022-11-04T04:45:10.256Z,75.60
2022-11-04T04:47:43.547Z,75.50
2022-11-04T04:50:14.433Z,75.60
2022-11-04T04:52:46.778Z,75.70
2022-11-04T04:55:16.575Z,75.20
2022-11-04T04:57:45.121Z,75.20
2022-11-04T05:00:15.852Z,75.20
2022-11-04T05:02:44.427Z,75.30
2022-11-04T05:07:48.396Z,75.40
2022-11-04T05:10:17.766Z,75.30
2022-11-04T05:13:04.130Z,75.30
2022-11-04T05:15:32.971Z,75.30
2022-11-04T05:18:02.773Z,75.40
2022-11-04T05:20:34.305Z,75.40
2022-11-04T05:23:02.787Z,75.40
2022-11-04T05:25:31.111Z,75.30
2022-11-04T05:28:01.940Z,75.20
2022-11-04T05:30:30.523Z,75.30
2022-11-04T05:33:01.771Z,75.20
2022-11-04T05:35:35.147Z,75.00
2022-11-04T05:38:03.456Z,75.10
2022-11-04T05:40:31.915Z,75.10
2022-11-04T05:43:01.312Z,75.30
2022-11-04T05:45:30.792Z,75.60
2022-11-04T05:48:00.108Z,75.60
2022-11-04T05:50:28.859Z,75.70
2022-11-04T05:52:59.676Z,75.80
2022-11-04T05:55:28.705Z,75.90
2022-11-04T05:57:58.084Z,75.80
2022-11-04T06:00:27.236Z,76.00
2022-11-04T06:02:57.295Z,76.20
2022-11-04T06:05:25.889Z,76.20
2022-11-04T06:07:54.185Z,76.40
2022-11-04T06:10:24.132Z,76.70
2022-11-04T06:12:52.789Z,76.80
2022-11-04T06:15:20.998Z,76.80
2022-11-04T06:17:49.195Z,76.70
2022-11-04T06:20:17.616Z,76.80
2022-11-04T06:22:45.801Z,76.90
2022-11-04T06:25:14.226Z,76.90
2022-11-04T06:27:43.825Z,76.80
2022-11-04T06:30:13.333Z,76.80
2022-11-04T06:32:41.748Z,77.80
2022-11-04T06:35:10.232Z,77.10
2022-11-04T06:37:39.122Z,77.20
2022-11-04T06:40:08.793Z,77.40
2022-11-04T06:42:37.049Z,77.60
2022-11-04T06:45:07.676Z,77.60
2022-11-04T06:47:35.915Z,77.40
2022-11-04T06:50:04.425Z,77.00
2022-11-04T06:52:34.909Z,76.90
2022-11-04T06:55:07.534Z,77.00
2022-11-04T06:57:37.037Z,77.70
2022-11-04T07:00:07.895Z,77.00
2022-11-04T07:02:36.577Z,77.40
2022-11-04T07:05:05.289Z,77.60
2022-11-04T07:07:33.495Z,78.00
2022-11-04T07:10:01.853Z,78.30
2022-11-04T07:12:30.058Z,78.70
2022-11-04T07:14:58.419Z,79.00
2022-11-04T07:17:28.053Z,79.20
2022-11-04T07:19:56.338Z,79.30
2022-11-04T07:22:24.636Z,79.00
2022-11-04T07:24:52.970Z,78.80
2022-11-04T07:27:21.250Z,78.50
2022-11-04T07:29:49.955Z,78.50
2022-11-04T07:32:18.568Z,78.70
2022-11-04T07:34:48.191Z,79.00
2022-11-04T07:37:19.833Z,79.30
2022-11-04T07:39:48.468Z,79.60
2022-11-04T07:42:19.341Z,79.50
2022-11-04T07:44:48.111Z,79.50
2022-11-04T07:47:16.515Z,79.60
2022-11-04T07:49:49.298Z,79.60
2022-11-04T07:52:17.625Z,79.60
2022-11-04T07:54:45.941Z,79.30
2022-11-04T07:57:14.268Z,79.40
2022-11-04T07:59:50.869Z,79.50
2022-11-04T08:02:24.810Z,80.00
2022-11-04T08:05:00.514Z,79.80
2022-11-04T08:07:28.795Z,80.10
2022-11-04T08:09:58.278Z,79.80
2022-11-04T08:12:27.818Z,79.80
2022-11-04T08:14:56.251Z,79.90
2022-11-04T08:17:24.486Z,79.80
2022-11-04T08:19:52.700Z,79.70
2022-11-04T08:22:22.533Z,79.80
2022-11-04T08:24:50.807Z,79.90
2022-11-04T08:27:19.101Z,79.80
2022-11-04T08:29:47.386Z,79.90
2022-11-04T08:32:15.809Z,80.00
2022-11-04T08:34:44.522Z,80.20
2022-11-04T08:37:15.317Z,80.30
2022-11-04T08:39:45.059Z,80.60
2022-11-04T08:42:13.376Z,80.50
2022-11-04T08:44:41.686Z,80.30
2022-11-04T08:47:10.317Z,80.40
2022-11-04T08:49:39.934Z,80.40
2022-11-04T08:52:09.940Z,80.30
2022-11-04T08:54:38.287Z,80.40
2022-11-04T08:57:07.941Z,80.40
2022-11-04T08:59:36.294Z,80.50
2022-11-04T09:02:19.318Z,80.50
2022-11-04T09:04:47.574Z,80.70
2022-11-04T09:07:15.749Z,80.40
2022-11-04T09:09:44.026Z,80.20
2022-11-04T09:12:13.662Z,80.20
2022-11-04T09:14:41.902Z,80.10
2022-11-04T09:17:13.950Z,79.80
2022-11-04T09:19:42.255Z,79.40
2022-11-04T09:22:13.547Z,78.90
2022-11-04T09:24:41.890Z,78.70
2022-11-04T09:27:11.471Z,78.80
2022-11-04T09:29:41.226Z,78.50
2022-11-04T09:32:10.195Z,78.20
2022-11-04T09:34:38.517Z,77.90
2022-11-04T09:37:06.742Z,77.80
2022-11-04T09:40:27.422Z,77.80
2022-11-04T09:43:12.417Z,77.00
2022-11-04T09:45:45.581Z,76.60
2022-11-04T09:48:21.030Z,76.50
2022-11-04T09:50:52.733Z,76.20
2022-11-04T09:53:25.531Z,76.10
2022-11-04T09:55:58.360Z,75.70
2022-11-04T09:58:27.347Z,75.60
2022-11-04T10:01:04.169Z,75.60
2022-11-04T10:03:49.335Z,75.00
2022-11-04T10:06:39.878Z,74.60
2022-11-04T10:09:37.173Z,74.30
2022-11-04T10:12:22.113Z,73.70
2022-11-04T10:15:16.799Z,72.90
2022-11-04T10:17:59.689Z,72.20
2022-11-04T10:20:43.616Z,72.20
2022-11-04T10:23:22.645Z,72.10
2022-11-04T10:25:57.123Z,71.50
2022-11-04T10:28:37.641Z,71.10
2022-11-04T10:31:06.940Z,70.60
2022-11-04T10:33:48.904Z,70.40
2022-11-04T10:36:19.212Z,69.00
2022-11-04T10:39:04.982Z,68.90
2022-11-04T10:41:36.355Z,67.00
2022-11-04T10:44:07.737Z,66.40
2022-11-04T10:46:48.468Z,65.40
2022-11-04T10:50:26.671Z,64.00
2022-11-04T10:52:42.629Z,62.90
2022-11-04T10:55:29.100Z,64.00
2022-11-04T10:57:59.830Z,62.60
2022-11-04T11:00:39.928Z,63.00
2022-11-04T11:03:24.718Z,61.60
2022-11-04T11:05:56.300Z,61.10
2022-11-04T11:08:33.901Z,61.40
2022-11-04T11:11:02.454Z,60.30
2022-11-04T11:13:39.498Z,61.00
2022-11-04T11:16:11.805Z,59.70
2022-11-04T11:18:41.720Z,59.40
2022-11-04T11:21:14.581Z,59.20
2022-11-04T11:23:46.889Z,58.70
2022-11-04T11:26:17.604Z,59.10
2022-11-04T11:28:58.423Z,59.20
2022-11-04T11:31:27.562Z,59.10
2022-11-04T11:34:05.125Z,59.40
2022-11-04T11:36:38.474Z,59.30
2022-11-04T11:39:07.986Z,59.60
2022-11-04T11:41:53.137Z,61.40
2022-11-04T11:44:28.701Z,60.10
2022-11-04T11:47:03.159Z,60.10
2022-11-04T11:49:34.530Z,60.40
2022-11-04T11:52:25.002Z,61.40
2022-11-04T11:54:57.428Z,62.00
2022-11-04T11:57:35.879Z,62.50
2022-11-04T12:03:02.538Z,63.60
2022-11-04T12:11:46.294Z,65.10
2022-11-04T12:14:22.443Z,65.40
2022-11-04T12:17:00.173Z,65.80
2022-11-04T12:19:48.525Z,66.20
2022-11-04T12:22:27.417Z,67.00
2022-11-04T12:25:42.343Z,67.00
2022-11-04T12:28:24.593Z,67.50
2022-11-04T12:31:02.829Z,67.80
2022-11-04T12:33:36.949Z,68.10
2022-11-04T12:36:19.179Z,68.50
2022-11-04T12:39:03.529Z,68.90
2022-11-04T12:42:14.355Z,69.30
2022-11-04T12:44:35.956Z,69.50
2022-11-04T12:47:16.975Z,69.40
2022-11-04T12:50:15.113Z,69.80
2022-11-04T12:53:06.822Z,69.90
2022-11-04T12:55:44.670Z,70.40
2022-11-04T12:58:28.273Z,70.20
2022-11-04T13:00:59.846Z,70.70
2022-11-04T13:03:33.144Z,70.40
2022-11-04T13:06:05.679Z,70.30
2022-11-04T13:08:40.044Z,70.60
2022-11-04T13:11:23.735Z,70.70
2022-11-04T13:14:02.263Z,71.00
2022-11-04T13:16:31.899Z,71.40
2022-11-04T13:19:01.045Z,71.20
2022-11-04T13:21:34.398Z,71.40
2022-11-04T13:24:04.358Z,71.60
2022-11-04T13:26:33.782Z,71.70
2022-11-04T13:29:12.237Z,71.50
2022-11-04T13:31:50.369Z,72.00
2022-11-04T13:34:33.140Z,72.10
2022-11-04T13:37:11.990Z,72.10
2022-11-04T13:39:46.118Z,72.00
2022-11-04T13:42:47.742Z,72.10
2022-11-04T13:45:21.134Z,73.10
2022-11-04T13:47:51.630Z,72.90
2022-11-04T13:50:38.720Z,72.60
2022-11-04T13:53:10.550Z,73.10
2022-11-04T13:55:49.868Z,72.70
2022-11-04T13:58:25.874Z,73.30
2022-11-04T14:01:26.974Z,73.30
2022-11-04T14:04:02.907Z,73.50
2022-11-04T14:06:57.141Z,73.30
2022-11-04T14:09:51.993Z,74.30
2022-11-04T14:12:41.147Z,74.00
2022-11-04T14:15:16.609Z,73.70
2022-11-04T14:18:10.496Z,73.20
2022-11-04T14:21:07.687Z,73.50
2022-11-04T14:23:37.228Z,73.80
2022-11-04T14:26:08.281Z,73.50
2022-11-04T14:28:38.036Z,73.80
2022-11-04T14:31:12.548Z,74.00
2022-11-04T14:33:54.921Z,73.80
2022-11-04T14:36:35.791Z,74.30
2022-11-04T14:39:08.471Z,74.00
2022-11-04T14:42:08.583Z,73.60
2022-11-04T14:44:49.782Z,73.80
2022-11-04T14:47:21.590Z,73.70
2022-11-04T14:49:53.652Z,73.60
2022-11-04T14:52:27.152Z,73.50
2022-11-04T14:54:59.690Z,73.60
2022-11-04T14:57:36.545Z,73.70
2022-11-04T15:00:22.229Z,73.80
2022-11-04T15:03:02.387Z,74.20
2022-11-04T15:05:36.279Z,73.90
2022-11-04T15:08:19.822Z,74.00
2022-11-04T15:10:50.267Z,73.90
2022-11-04T15:13:21.927Z,74.10
2022-11-04T15:15:51.863Z,74.00
2022-11-04T15:18:28.124Z,74.20
2022-11-04T15:21:00.568Z,74.30
2022-11-04T15:23:31.400Z,74.30
2022-11-04T15:26:00.657Z,74.30
2022-11-04T20:05:13.231Z,78.40
2022-11-04T20:07:41.339Z,78.00
2022-11-04T20:10:10.544Z,78.20
2022-11-04T20:12:56.275Z,78.20
2022-11-04T20:15:26.482Z,78.30
2022-11-04T20:17:54.830Z,78.30
2022-11-04T20:20:24.400Z,78.10
2022-11-04T20:22:52.576Z,78.70
2022-11-04T20:25:20.706Z,77.80
2022-11-04T20:27:48.907Z,77.90
2022-11-04T20:30:17.138Z,78.00
2022-11-04T20:32:45.282Z,78.30
2022-11-04T20:35:13.598Z,78.60
2022-11-04T20:37:43.208Z,78.70
2022-11-04T20:40:12.671Z,78.80
2022-11-04T20:42:47.977Z,78.80
2022-11-04T20:45:16.488Z,78.80
2022-11-04T20:47:44.679Z,78.70
2022-11-04T20:50:13.039Z,78.70
2022-11-04T20:52:42.623Z,78.60
2022-11-04T20:55:11.975Z,78.40
2022-11-04T20:57:40.675Z,78.40
2022-11-04T21:00:10.039Z,78.40
2022-11-04T21:02:38.273Z,78.40
2022-11-04T21:05:07.308Z,78.40
2022-11-04T21:07:36.518Z,78.60
2022-11-04T21:10:06.730Z,78.80
2022-11-04T21:12:34.961Z,78.90
2022-11-04T21:15:03.162Z,78.90
2022-11-04T21:17:34.920Z,78.90
2022-11-04T21:20:08.497Z,78.90
2022-11-04T21:22:36.608Z,78.90
2022-11-04T21:25:06.699Z,78.70
2022-11-04T21:27:34.881Z,78.70
2022-11-04T21:30:03.038Z,78.60
2022-11-04T21:32:31.175Z,78.60
2022-11-04T21:34:59.309Z,78.60
2022-11-04T21:37:27.453Z,78.70
2022-11-04T21:39:55.659Z,78.60
2022-11-04T21:42:25.074Z,78.60
2022-11-04T21:44:53.193Z,78.60
2022-11-04T21:47:21.370Z,78.50
2022-11-04T21:49:50.369Z,78.60
2022-11-04T21:52:18.490Z,78.60
2022-11-04T21:54:47.311Z,78.60
2022-11-04T21:57:15.479Z,78.60
2022-11-04T21:59:44.993Z,78.60
2022-11-04T22:02:13.211Z,78.60
2022-11-04T22:04:41.514Z,78.60
2022-11-04T22:07:09.656Z,78.60
2022-11-04T22:09:38.030Z,78.70
2022-11-04T22:12:06.414Z,78.70
2022-11-04T22:14:37.530Z,78.70
2022-11-04T22:17:07.156Z,78.70
2022-11-04T22:19:35.258Z,78.70
2022-11-04T22:22:03.437Z,78.60
2022-11-04T22:24:31.545Z,78.70
2022-11-04T22:26:59.665Z,78.70
2022-11-04T22:29:27.754Z,78.80
2022-11-04T22:31:55.869Z,78.90
2022-11-04T22:34:26.045Z,78.90
2022-11-04T22:36:54.176Z,79.00
2022-11-04T22:39:22.331Z,78.90
2022-11-04T22:41:50.455Z,78.90
2022-11-04T22:44:18.569Z,78.80
2022-11-04T22:46:46.693Z,78.90
2022-11-04T22:49:14.855Z,78.90
2022-11-04T22:51:44.371Z,78.90
2022-11-04T22:54:12.576Z,78.80
2022-11-04T22:56:40.695Z,78.70
2022-11-04T22:59:08.941Z,78.80
2022-11-04T23:01:37.211Z,79.00
2022-11-04T23:04:06.516Z,79.10
2022-11-04T23:06:35.033Z,79.80
2022-11-04T23:09:05.138Z,79.10
2022-11-04T23:11:51.971Z,79.20
2022-11-04T23:14:39.463Z,79.10
2022-11-04T23:17:33.506Z,79.10
2022-11-04T23:20:02.123Z,79.30
2022-11-04T23:22:47.591Z,79.10
2022-11-04T23:25:17.098Z,79.10
2022-11-04T23:28:04.617Z,79.20
2022-11-04T23:30:34.460Z,79.10
2022-11-04T23:33:06.497Z,79.70
2022-11-04T23:35:53.834Z,79.00
2022-11-04T23:38:22.772Z,79.10
2022-11-04T23:41:12.765Z,79.10
2022-11-04T23:43:40.917Z,79.20
2022-11-04T23:46:26.382Z,79.00
2022-11-04T23:49:12.130Z,79.10
2022-11-04T23:52:00.473Z,79.10
2022-11-04T23:54:46.095Z,79.00
2022-11-04T23:57:34.615Z,78.90
